Time;durP1;ratioP1;P1;durP2;ratioP2;P2;SDS_P1;SDS_P2;PMS_P1;PMS_P2;Temp;Humidity;BMP_temperature;BMP_pressure;BME280_temperature;BME280_humidity;BME280_pressure;Samples;Min_cycle;Max_cycle;Signal;HPM_P1;HPM_P2
2023/10/18 00:02:02;;;;;;;10.15;4.53;;;4.50;99.90;;;;;;5054020;28;20049;-85
2023/10/18 00:04:29;;;;;;;9.90;4.78;;;4.50;99.90;;;;;;5051689;28;20156;-85
2023/10/18 00:06:56;;;;;;;10.93;5.50;;;4.60;99.90;;;;;;5052999;28;20112;-85
2023/10/18 00:12:08;;;;;;;9.50;5.03;;;5.00;99.90;;;;;;5068291;28;20048;-85
2023/10/18 00:14:35;;;;;;;10.30;5.40;;;4.60;99.90;;;;;;5033082;28;20099;-86
2023/10/18 00:17:02;;;;;;;10.40;5.30;;;4.60;99.90;;;;;;5033555;28;20120;-86
2023/10/18 00:19:28;;;;;;;7.88;5.07;;;4.60;99.90;;;;;;5050607;28;20124;-85
2023/10/18 00:21:55;;;;;;;10.00;5.80;;;5.40;99.90;;;;;;5058852;28;20128;-84
2023/10/18 00:24:22;;;;;;;10.00;5.55;;;5.30;99.90;;;;;;5038339;28;20121;-86
2023/10/18 00:26:49;;;;;;;9.82;5.55;;;4.60;99.90;;;;;;5055645;28;20443;-86
2023/10/18 00:29:16;;;;;;;12.13;5.22;;;5.30;99.90;;;;;;5044053;28;20052;-86
2023/10/18 00:31:44;;;;;;;9.93;5.72;;;4.70;99.90;;;;;;5032333;28;20091;-86
2023/10/18 00:34:12;;;;;;;9.20;5.63;;;4.60;99.90;;;;;;5050822;28;20049;-86
2023/10/18 00:36:40;;;;;;;13.63;6.38;;;4.60;99.90;;;;;;5050822;28;20534;-86
2023/10/18 00:39:20;;;;;;;11.32;6.30;;;4.70;99.90;;;;;;5053383;28;20099;-86
2023/10/18 00:41:52;;;;;;;13.27;6.57;;;5.40;99.90;;;;;;5038231;28;20037;-86
2023/10/18 00:44:21;;;;;;;13.68;6.57;;;4.60;99.90;;;;;;5046532;28;20089;-86
2023/10/18 00:46:55;;;;;;;13.45;6.47;;;4.70;99.90;;;;;;5052648;28;20414;-86
2023/10/18 00:49:22;;;;;;;10.15;6.38;;;4.70;99.90;;;;;;5044667;28;20402;-86
2023/10/18 00:51:49;;;;;;;11.73;6.20;;;4.70;99.90;;;;;;5039638;28;20056;-86
2023/10/18 00:54:19;;;;;;;13.50;6.40;;;4.70;99.90;;;;;;5044823;28;20713;-86
2023/10/18 00:56:50;;;;;;;13.30;6.68;;;4.70;99.90;;;;;;5042574;28;20134;-87
2023/10/18 00:59:26;;;;;;;12.90;6.53;;;4.70;99.90;;;;;;5062476;28;20053;-86
2023/10/18 01:02:05;;;;;;;11.52;6.75;;;5.40;99.90;;;;;;5044500;28;20049;-86
2023/10/18 01:04:34;;;;;;;15.00;6.90;;;4.60;99.90;;;;;;5067281;28;20053;-86
2023/10/18 01:07:11;;;;;;;12.82;6.97;;;4.70;99.90;;;;;;5052381;28;20042;-85
2023/10/18 01:09:43;;;;;;;13.23;7.28;;;4.80;99.90;;;;;;5050129;28;20034;-85
2023/10/18 01:12:11;;;;;;;11.07;6.60;;;4.60;99.90;;;;;;5058407;28;20522;-85
2023/10/18 01:14:38;;;;;;;15.85;7.30;;;4.70;99.90;;;;;;5034331;28;20118;-85
2023/10/18 01:17:06;;;;;;;13.85;6.95;;;5.00;99.90;;;;;;5047675;28;20069;-86
2023/10/18 01:19:34;;;;;;;13.07;7.80;;;4.70;99.90;;;;;;5043813;28;20123;-86
2023/10/18 01:22:02;;;;;;;10.50;6.20;;;4.60;99.90;;;;;;5045535;28;20037;-86
2023/10/18 01:24:36;;;;;;;14.25;6.95;;;4.60;99.90;;;;;;5047644;28;20037;-86
2023/10/18 01:27:04;;;;;;;12.77;6.70;;;4.80;99.90;;;;;;5040532;28;20033;-86
2023/10/18 01:29:32;;;;;;;13.10;6.38;;;5.40;99.90;;;;;;5050612;28;20491;-86
2023/10/18 01:31:59;;;;;;;13.57;6.55;;;4.70;99.90;;;;;;5048866;28;20492;-86
2023/10/18 01:34:26;;;;;;;13.00;7.30;;;4.60;99.90;;;;;;5044392;28;20037;-86
2023/10/18 01:36:56;;;;;;;11.15;7.25;;;4.60;99.90;;;;;;5050798;28;20041;-86
2023/10/18 01:39:24;;;;;;;14.70;6.82;;;5.30;99.90;;;;;;5050031;28;20052;-86
2023/10/18 01:41:54;;;;;;;11.55;7.00;;;5.30;99.90;;;;;;5047552;28;20041;-86
2023/10/18 01:44:28;;;;;;;11.70;6.65;;;5.20;99.90;;;;;;5049895;28;20033;-86
2023/10/18 01:46:56;;;;;;;13.93;6.50;;;4.70;99.90;;;;;;5039002;28;20045;-86
2023/10/18 01:49:26;;;;;;;11.60;6.72;;;4.60;99.90;;;;;;5066160;28;20033;-86
2023/10/18 01:51:54;;;;;;;12.27;6.63;;;4.60;99.90;;;;;;5063955;28;20040;-86
2023/10/18 01:54:25;;;;;;;11.15;6.28;;;4.60;99.90;;;;;;5037343;28;20049;-86
2023/10/18 01:56:53;;;;;;;11.68;6.55;;;4.50;99.90;;;;;;5041922;28;20049;-87
2023/10/18 01:59:24;;;;;;;11.20;6.30;;;4.50;99.90;;;;;;5037309;28;20053;-86
2023/10/18 02:01:53;;;;;;;11.45;6.30;;;5.20;99.90;;;;;;5071494;28;20041;-86
2023/10/18 02:04:26;;;;;;;10.88;6.38;;;4.50;99.90;;;;;;5069677;28;20084;-86
2023/10/18 02:06:59;;;;;;;12.05;6.78;;;4.50;99.90;;;;;;5069493;28;20045;-86
2023/10/18 02:09:36;;;;;;;10.77;6.85;;;4.50;99.90;;;;;;5061239;28;20073;-86
2023/10/18 02:12:06;;;;;;;12.73;6.18;;;4.50;99.90;;;;;;5043606;28;20042;-86
2023/10/18 02:14:33;;;;;;;11.48;6.35;;;4.50;99.90;;;;;;5041391;28;20038;-86
2023/10/18 02:17:01;;;;;;;11.65;6.40;;;5.20;99.90;;;;;;5055773;28;20064;-86
2023/10/18 02:19:31;;;;;;;12.10;5.80;;;4.50;99.90;;;;;;5069557;28;20037;-85
2023/10/18 02:21:58;;;;;;;11.70;5.97;;;4.70;99.90;;;;;;5032639;28;20121;-86
2023/10/18 02:24:25;;;;;;;14.00;6.72;;;4.50;99.90;;;;;;5046365;28;20539;-86
2023/10/18 02:26:54;;;;;;;13.60;6.03;;;4.40;99.90;;;;;;5065962;28;20079;-86
2023/10/18 02:29:22;;;;;;;10.90;5.90;;;4.40;99.90;;;;;;5045215;28;20045;-86
2023/10/18 02:31:52;;;;;;;10.98;6.32;;;4.40;99.90;;;;;;5036533;28;20044;-86
2023/10/18 02:34:19;;;;;;;10.85;6.40;;;4.40;99.90;;;;;;5069644;28;20099;-86
2023/10/18 02:36:48;;;;;;;10.55;5.93;;;4.80;99.90;;;;;;5040751;28;20466;-86
2023/10/18 02:39:27;;;;;;;11.27;6.00;;;5.20;99.90;;;;;;5053304;28;20270;-86
2023/10/18 02:41:56;;;;;;;11.23;6.70;;;4.40;99.90;;;;;;5041746;28;20062;-86
2023/10/18 02:44:23;;;;;;;12.02;6.65;;;4.50;99.90;;;;;;5053567;28;20045;-86
2023/10/18 02:46:54;;;;;;;10.20;6.32;;;4.40;99.90;;;;;;5070334;28;20034;-86
2023/10/18 02:49:23;;;;;;;12.13;6.97;;;4.40;99.90;;;;;;5069138;28;20049;-86
2023/10/18 02:51:50;;;;;;;12.00;6.68;;;5.20;99.90;;;;;;5042265;28;20690;-86
2023/10/18 02:54:17;;;;;;;9.60;6.13;;;4.40;99.90;;;;;;5044120;28;20092;-86
2023/10/18 02:56:52;;;;;;;14.93;6.80;;;4.40;99.90;;;;;;5033368;28;20044;-86
2023/10/18 02:59:21;;;;;;;12.67;6.80;;;4.70;99.90;;;;;;5055967;28;20054;-86
2023/10/18 03:01:49;;;;;;;12.95;6.45;;;4.40;99.90;;;;;;5052967;28;20276;-86
2023/10/18 03:04:18;;;;;;;13.55;6.82;;;4.40;99.90;;;;;;5059492;28;20120;-86
2023/10/18 03:06:47;;;;;;;11.32;6.57;;;4.40;99.90;;;;;;5049396;28;20090;-86
2023/10/18 03:11:59;;;;;;;11.23;6.78;;;4.40;99.90;;;;;;5074690;28;20577;-86
2023/10/18 03:14:41;;;;;;;10.77;6.80;;;4.40;99.90;;;;;;5047431;28;20038;-86
2023/10/18 03:19:44;;;;;;;12.50;7.28;;;4.40;99.90;;;;;;5068861;28;20049;-86
2023/10/18 03:22:11;;;;;;;13.07;7.20;;;4.80;99.90;;;;;;5055865;28;20037;-86
2023/10/18 03:24:38;;;;;;;12.00;6.65;;;4.40;99.90;;;;;;5055605;28;20044;-86
2023/10/18 03:27:08;;;;;;;12.82;6.90;;;4.40;99.90;;;;;;5053909;28;20037;-86
2023/10/18 03:29:37;;;;;;;14.63;7.53;;;4.40;99.90;;;;;;5052370;28;20048;-86
2023/10/18 03:32:08;;;;;;;14.32;7.90;;;4.40;99.90;;;;;;5071005;28;20083;-86
2023/10/18 03:34:37;;;;;;;18.30;8.10;;;4.40;99.90;;;;;;5040632;28;20092;-86
2023/10/18 03:37:04;;;;;;;15.25;7.63;;;4.40;99.90;;;;;;5052450;28;20086;-86
2023/10/18 03:39:31;;;;;;;12.07;7.53;;;5.30;99.90;;;;;;5047032;28;20077;-86
2023/10/18 03:42:02;;;;;;;14.43;7.68;;;4.40;99.90;;;;;;5070090;28;20744;-86
2023/10/18 03:44:32;;;;;;;13.23;7.88;;;4.40;99.90;;;;;;5052845;28;20029;-86
2023/10/18 03:47:05;;;;;;;15.57;8.20;;;4.40;99.90;;;;;;5054417;28;20048;-86
2023/10/18 03:49:36;;;;;;;13.13;7.80;;;4.40;99.90;;;;;;5068876;28;20037;-86
2023/10/18 03:55:04;;;;;;;13.88;8.23;;;4.40;99.90;;;;;;5054160;28;20456;-86
2023/10/18 03:57:41;;;;;;;14.93;8.35;;;4.40;99.90;;;;;;5072752;28;20041;-86
2023/10/18 04:02:56;;;;;;;15.20;8.45;;;5.00;99.90;;;;;;5061356;28;20052;-87
2023/10/18 04:08:18;;;;;;;16.98;9.07;;;4.40;99.90;;;;;;5064434;28;20041;-86
2023/10/18 04:10:58;;;;;;;16.65;9.48;;;4.40;99.90;;;;;;5048251;28;20079;-86
2023/10/18 04:13:28;;;;;;;17.63;8.55;;;4.50;99.90;;;;;;5050236;28;20106;-86
2023/10/18 04:15:59;;;;;;;15.23;8.68;;;4.50;99.90;;;;;;5066027;28;20046;-86
2023/10/18 04:18:29;;;;;;;19.98;9.32;;;4.50;99.90;;;;;;5065386;28;20053;-86
2023/10/18 04:20:59;;;;;;;18.55;9.52;;;4.80;99.90;;;;;;5041550;28;20048;-86
2023/10/18 04:23:26;;;;;;;18.08;10.25;;;4.50;99.90;;;;;;5050788;28;20068;-86
2023/10/18 04:26:00;;;;;;;18.02;9.23;;;4.50;99.90;;;;;;5044143;28;20033;-87
2023/10/18 04:28:37;;;;;;;16.77;9.73;;;4.50;99.90;;;;;;5051172;28;20505;-86
2023/10/18 04:31:08;;;;;;;16.13;9.18;;;4.50;99.90;;;;;;5071066;28;20033;-86
2023/10/18 04:33:35;;;;;;;18.50;10.52;;;4.50;99.90;;;;;;5048014;28;20078;-86
2023/10/18 04:36:12;;;;;;;15.75;9.30;;;5.00;99.90;;;;;;5033998;28;20496;-86
2023/10/18 04:38:44;;;;;;;18.23;10.07;;;4.50;99.90;;;;;;5037313;28;20107;-86
2023/10/18 04:41:33;;;;;;;17.55;10.27;;;4.60;99.90;;;;;;5045766;28;20041;-86
2023/10/18 04:44:18;;;;;;;16.33;9.63;;;4.50;99.90;;;;;;5060911;28;20048;-86
2023/10/18 04:46:48;;;;;;;19.90;10.50;;;4.80;99.90;;;;;;5043121;28;20395;-86
2023/10/18 04:54:15;;;;;;;18.40;10.00;;;4.40;99.90;;;;;;5054287;28;20051;-86
2023/10/18 04:56:46;;;;;;;19.73;10.68;;;4.30;99.90;;;;;;5039935;28;20033;-86
2023/10/18 05:04:34;;;;;;;16.73;9.68;;;4.40;99.90;;;;;;5055815;28;20037;-86
2023/10/18 05:07:15;;;;;;;17.95;10.65;;;4.40;99.90;;;;;;5056570;28;20083;-87
2023/10/18 05:09:45;;;;;;;23.73;11.45;;;4.40;99.90;;;;;;5042646;28;20137;-87
2023/10/18 05:15:30;;;;;;;18.85;10.85;;;4.40;99.90;;;;;;5058907;28;20045;-87
2023/10/18 05:17:43;;;;;;;21.63;11.05;;;4.40;99.90;;;;;;5049735;28;20469;-86
2023/10/18 05:22:59;;;;;;;19.85;11.40;;;4.40;99.90;;;;;;5058114;28;20045;-87
2023/10/18 05:25:38;;;;;;;24.85;11.45;;;4.40;99.90;;;;;;5046284;28;20037;-86
2023/10/18 05:28:24;;;;;;;21.95;10.77;;;4.40;99.90;;;;;;5044389;28;20067;-87
2023/10/18 05:36:29;;;;;;;20.30;11.20;;;4.40;99.90;;;;;;5086319;28;20597;-86
2023/10/18 05:39:17;;;;;;;18.90;10.35;;;4.30;99.90;;;;;;5043587;28;20059;-87
2023/10/18 05:41:49;;;;;;;17.63;10.43;;;4.30;99.90;;;;;;5041803;28;20105;-86
2023/10/18 05:44:16;;;;;;;19.95;11.40;;;4.30;99.90;;;;;;5065026;28;20052;-86
2023/10/18 05:46:46;;;;;;;20.98;11.43;;;4.30;99.90;;;;;;5049714;28;20033;-86
2023/10/18 05:49:15;;;;;;;19.67;11.05;;;4.40;99.90;;;;;;5045447;28;20091;-86
2023/10/18 05:51:51;;;;;;;24.63;11.80;;;5.00;99.90;;;;;;5057413;28;20131;-86
2023/10/18 05:54:21;;;;;;;20.50;10.98;;;4.20;99.90;;;;;;5074686;28;20040;-86
2023/10/18 05:56:53;;;;;;;21.08;11.20;;;4.30;99.90;;;;;;5057478;28;20051;-86
2023/10/18 06:01:48;;;;;;;22.10;13.43;;;4.60;99.90;;;;;;5060251;28;20392;-87
2023/10/18 06:04:24;;;;;;;20.17;11.48;;;4.20;99.90;;;;;;5063295;28;20056;-86
2023/10/18 06:06:58;;;;;;;23.33;12.18;;;4.30;99.90;;;;;;5068227;28;20041;-86
2023/10/18 06:09:29;;;;;;;24.17;12.15;;;4.30;99.90;;;;;;5049304;28;20041;-86
2023/10/18 06:11:56;;;;;;;21.25;11.82;;;4.20;99.90;;;;;;5039678;28;20046;-83
2023/10/18 06:14:33;;;;;;;23.58;12.32;;;4.30;99.90;;;;;;5048557;28;20133;-84
2023/10/18 06:17:12;;;;;;;20.10;11.38;;;4.20;99.90;;;;;;5049225;28;20463;-84
2023/10/18 06:19:41;;;;;;;23.88;12.63;;;4.30;99.90;;;;;;5045380;28;20519;-83
2023/10/18 06:22:28;;;;;;;21.70;12.32;;;4.30;99.90;;;;;;5046791;28;20116;-83
2023/10/18 06:25:00;;;;;;;24.95;13.18;;;4.60;99.90;;;;;;5044085;28;20079;-83
2023/10/18 06:27:29;;;;;;;24.35;12.85;;;4.30;99.90;;;;;;5038160;28;20121;-83
2023/10/18 06:29:56;;;;;;;22.45;12.27;;;4.30;99.90;;;;;;5043518;28;20048;-84
2023/10/18 06:32:24;;;;;;;21.98;12.85;;;4.40;99.90;;;;;;5047639;28;20128;-84
2023/10/18 06:34:58;;;;;;;25.45;12.50;;;4.40;99.90;;;;;;5041636;28;20083;-83
2023/10/18 06:37:41;;;;;;;23.58;12.52;;;4.40;99.90;;;;;;5038977;28;20069;-84
2023/10/18 06:40:21;;;;;;;21.95;11.50;;;4.40;99.90;;;;;;5043226;28;20491;-83
2023/10/18 06:42:48;;;;;;;21.35;12.80;;;4.40;99.90;;;;;;5046617;28;20073;-84
2023/10/18 06:45:25;;;;;;;23.02;11.95;;;4.50;99.90;;;;;;5031596;28;20408;-84
2023/10/18 06:47:55;;;;;;;21.50;11.57;;;4.50;99.90;;;;;;5050963;28;20052;-84
2023/10/18 06:50:26;;;;;;;21.13;12.32;;;4.50;99.90;;;;;;5038579;28;20446;-84
2023/10/18 06:52:53;;;;;;;22.98;12.75;;;5.20;99.90;;;;;;5045036;28;20034;-84
2023/10/18 06:55:35;;;;;;;22.90;12.48;;;4.60;99.90;;;;;;5042126;28;20046;-84
2023/10/18 06:58:22;;;;;;;23.83;12.25;;;4.60;99.90;;;;;;5041045;28;20108;-84
2023/10/18 07:00:53;;;;;;;25.23;12.35;;;4.60;99.90;;;;;;5046638;28;20046;-83
2023/10/18 07:03:27;;;;;;;24.35;12.23;;;4.60;99.90;;;;;;5054725;28;20411;-83
2023/10/18 07:05:56;;;;;;;26.88;12.93;;;5.00;99.90;;;;;;5053071;28;20033;-84
2023/10/18 07:08:45;;;;;;;23.73;13.10;;;5.20;99.90;;;;;;5048016;28;20073;-84
2023/10/18 07:11:16;;;;;;;25.40;12.85;;;4.70;99.90;;;;;;5056027;28;20045;-84
2023/10/18 07:13:47;;;;;;;22.13;12.13;;;4.60;99.90;;;;;;5032754;28;20045;-83
2023/10/18 07:16:18;;;;;;;23.35;11.85;;;4.70;99.90;;;;;;5046707;28;20033;-83
2023/10/18 07:18:45;;;;;;;22.20;12.02;;;4.30;99.90;;;;;;5039336;28;20049;-83
2023/10/18 07:21:18;;;;;;;24.95;12.35;;;4.80;99.90;;;;;;5049291;28;20041;-83
2023/10/18 07:23:54;;;;;;;21.48;12.32;;;4.90;99.90;;;;;;5048504;28;20033;-83
2023/10/18 07:26:22;;;;;;;23.58;12.43;;;4.90;99.90;;;;;;5036457;28;20042;-83
2023/10/18 07:28:49;;;;;;;23.27;11.75;;;4.90;99.90;;;;;;5039896;28;20046;-83
2023/10/18 07:31:19;;;;;;;24.52;12.68;;;5.10;99.90;;;;;;5034115;28;20038;-83
2023/10/18 07:33:50;;;;;;;25.90;12.65;;;5.00;99.90;;;;;;5043999;28;20484;-83
2023/10/18 07:36:22;;;;;;;26.10;12.02;;;5.00;99.90;;;;;;5035097;28;20037;-83
2023/10/18 07:38:49;;;;;;;22.00;11.85;;;5.10;99.90;;;;;;5061626;28;20402;-83
2023/10/18 07:41:18;;;;;;;21.17;12.02;;;5.30;99.90;;;;;;5030862;28;20141;-83
2023/10/18 07:43:44;;;;;;;18.67;11.40;;;5.40;99.90;;;;;;5038429;28;20522;-83
2023/10/18 07:46:24;;;;;;;22.92;11.98;;;5.90;99.90;;;;;;5043504;28;20033;-85
2023/10/18 07:48:53;;;;;;;20.42;11.70;;;5.30;99.90;;;;;;5054308;28;20044;-83
2023/10/18 07:51:23;;;;;;;19.75;11.70;;;5.30;99.90;;;;;;5037382;28;20065;-85
2023/10/18 07:53:55;;;;;;;21.35;11.85;;;5.40;99.90;;;;;;5032774;28;20225;-83
2023/10/18 07:56:32;;;;;;;21.52;11.80;;;5.40;99.90;;;;;;5030519;28;20046;-83
2023/10/18 08:00:21;;;;;;;24.05;12.30;;;5.50;99.90;;;;;;5058354;28;20500;-83
2023/10/18 08:04:43;;;;;;;20.30;11.30;;;5.80;99.90;;;;;;5047155;28;20519;-83
2023/10/18 08:07:15;;;;;;;22.80;11.65;;;5.70;99.90;;;;;;5053332;28;20039;-83
2023/10/18 08:09:43;;;;;;;19.27;10.95;;;5.70;99.90;;;;;;5052148;28;20121;-83
2023/10/18 08:12:29;;;;;;;20.98;11.20;;;6.00;99.90;;;;;;5038106;28;20431;-82
2023/10/18 08:14:57;;;;;;;25.50;12.07;;;6.30;99.90;;;;;;5044841;28;20587;-83
2023/10/18 08:17:30;;;;;;;23.98;11.70;;;6.40;99.90;;;;;;5076201;28;20427;-83
2023/10/18 08:22:42;;;;;;;21.65;11.70;;;6.10;99.90;;;;;;5060730;28;20048;-83
2023/10/18 08:25:21;;;;;;;19.77;11.07;;;6.50;99.90;;;;;;5050558;28;20433;-83
2023/10/18 08:27:49;;;;;;;18.10;10.63;;;6.20;99.90;;;;;;5046170;28;20506;-82
2023/10/18 08:30:30;;;;;;;18.35;10.27;;;6.30;99.90;;;;;;5035920;28;20045;-82
2023/10/18 08:32:58;;;;;;;20.15;10.50;;;6.30;99.90;;;;;;5051464;28;20045;-83
2023/10/18 08:35:25;;;;;;;20.50;11.45;;;6.40;99.90;;;;;;5050282;28;20046;-82
2023/10/18 08:37:51;;;;;;;16.85;10.50;;;6.90;99.90;;;;;;5041024;28;20041;-83
2023/10/18 08:40:31;;;;;;;18.75;9.50;;;7.00;99.90;;;;;;5058890;28;20053;-82
2023/10/18 08:43:10;;;;;;;20.13;9.93;;;6.80;99.90;;;;;;5048345;28;20096;-83
2023/10/18 08:45:36;;;;;;;19.20;11.30;;;6.70;99.90;;;;;;5054402;28;20388;-82
2023/10/18 08:48:10;;;;;;;20.02;10.73;;;7.30;99.90;;;;;;5032209;28;20049;-83
2023/10/18 08:50:40;;;;;;;21.17;10.90;;;6.90;99.90;;;;;;5042846;28;20041;-82
2023/10/18 08:53:09;;;;;;;18.95;10.15;;;7.00;99.90;;;;;;5036163;28;20123;-83
2023/10/18 08:55:45;;;;;;;19.65;10.82;;;7.40;99.90;;;;;;5043288;28;20065;-83
2023/10/18 08:58:20;;;;;;;18.88;11.02;;;7.20;99.90;;;;;;5039504;28;20490;-83
2023/10/18 09:03:16;;;;;;;16.77;9.80;;;8.30;99.90;;;;;;5062217;28;20045;-79
2023/10/18 09:05:44;;;;;;;14.90;10.20;;;7.50;99.90;;;;;;5058348;28;20045;-83
2023/10/18 09:08:19;;;;;;;17.15;9.98;;;7.60;99.90;;;;;;5048396;28;20036;-83
2023/10/18 09:10:54;;;;;;;16.05;10.00;;;7.60;99.90;;;;;;5046089;28;20076;-84
2023/10/18 09:18:21;;;;;;;14.88;9.73;;;8.40;99.90;;;;;;5053726;28;20088;-84
2023/10/18 09:20:49;;;;;;;17.75;10.07;;;8.40;99.90;;;;;;5062370;28;20072;-84
2023/10/18 09:23:20;;;;;;;13.77;9.00;;;7.90;99.90;;;;;;5044232;28;20033;-85
2023/10/18 09:26:12;;;;;;;18.80;9.93;;;8.70;99.90;;;;;;5039011;28;20068;-85
2023/10/18 09:28:42;;;;;;;14.95;8.82;;;8.10;99.90;;;;;;5040670;28;20502;-85
2023/10/18 09:31:12;;;;;;;15.85;9.77;;;8.30;99.90;;;;;;5038197;28;20037;-84
2023/10/18 09:33:58;;;;;;;17.33;9.23;;;9.00;99.90;;;;;;5050473;28;20483;-85
2023/10/18 09:36:29;;;;;;;17.13;9.90;;;8.30;99.90;;;;;;5045287;28;20037;-85
2023/10/18 09:38:57;;;;;;;14.90;8.85;;;8.40;99.90;;;;;;5055495;28;20557;-84
2023/10/18 09:41:32;;;;;;;15.95;9.43;;;8.50;99.90;;;;;;5060566;28;20037;-83
2023/10/18 09:44:01;;;;;;;13.65;9.00;;;8.60;99.90;;;;;;5039259;28;20041;-84
2023/10/18 09:46:28;;;;;;;16.20;9.15;;;9.20;99.90;;;;;;5052320;28;20047;-83
2023/10/18 09:48:57;;;;;;;14.77;8.20;;;8.60;99.90;;;;;;5058073;28;20189;-84
2023/10/18 09:51:26;;;;;;;14.40;8.35;;;9.00;99.90;;;;;;5051976;28;20037;-85
2023/10/18 09:53:54;;;;;;;16.73;8.27;;;8.80;99.90;;;;;;5052226;28;20132;-84
2023/10/18 09:56:35;;;;;;;12.32;7.68;;;9.20;99.90;;;;;;5061145;28;20086;-84
2023/10/18 09:59:08;;;;;;;15.98;7.70;;;8.70;99.90;;;;;;5045042;28;20049;-83
2023/10/18 10:04:18;;;;;;;12.13;7.20;;;8.80;99.90;;;;;;5060057;28;20096;-83
2023/10/18 10:06:46;;;;;;;16.48;8.40;;;8.90;99.90;;;;;;5041860;28;20072;-84
2023/10/18 10:09:17;;;;;;;14.25;7.57;;;8.90;99.90;;;;;;5048564;28;20120;-85
2023/10/18 10:11:45;;;;;;;13.73;7.40;;;8.90;99.90;;;;;;5047879;28;20040;-84
2023/10/18 10:14:16;;;;;;;12.95;7.22;;;9.00;99.90;;;;;;5048521;28;20514;-84
2023/10/18 10:17:07;;;;;;;13.15;7.30;;;9.00;99.90;;;;;;5040811;28;20128;-84
2023/10/18 10:20:10;;;;;;;12.40;6.70;;;9.10;99.90;;;;;;5059724;28;20427;-84
2023/10/18 10:22:38;;;;;;;13.40;7.18;;;9.10;99.90;;;;;;5054213;28;20403;-84
2023/10/18 10:25:05;;;;;;;14.07;6.93;;;9.20;99.90;;;;;;5041125;28;20128;-84
2023/10/18 10:32:58;;;;;;;11.80;6.95;;;9.40;99.90;;;;;;5057934;28;20049;-84
2023/10/18 10:35:27;;;;;;;11.95;7.15;;;9.40;99.90;;;;;;5061827;28;20443;-83
2023/10/18 10:38:18;;;;;;;13.52;7.18;;;9.50;99.90;;;;;;5048791;28;20065;-84
2023/10/18 10:41:04;;;;;;;11.25;6.95;;;9.50;99.90;;;;;;5053185;28;20111;-84
2023/10/18 10:44:21;;;;;;;10.70;6.47;;;9.50;99.90;;;;;;5051828;28;20462;-84
2023/10/18 10:46:50;;;;;;;10.63;6.43;;;9.60;99.90;;;;;;5039020;28;20436;-84
2023/10/18 10:49:45;;;;;;;11.57;6.60;;;9.70;99.90;;;;;;5051527;28;20045;-84
2023/10/18 10:52:18;;;;;;;13.27;7.95;;;9.70;99.90;;;;;;5039730;28;20470;-84
2023/10/18 10:54:51;;;;;;;11.88;7.07;;;9.80;99.90;;;;;;5050871;28;20045;-84
2023/10/18 10:57:19;;;;;;;16.65;7.82;;;9.90;99.90;;;;;;5048481;28;20507;-84
2023/10/18 10:59:55;;;;;;;14.27;7.18;;;9.90;99.90;;;;;;5062591;28;20087;-83
2023/10/18 11:02:39;;;;;;;9.85;6.90;;;10.00;99.90;;;;;;5043340;28;20045;-84
2023/10/18 11:05:15;;;;;;;12.68;7.03;;;9.90;99.90;;;;;;5038331;28;20045;-84
2023/10/18 11:07:47;;;;;;;11.48;6.30;;;10.10;99.90;;;;;;5042204;28;20036;-84
2023/10/18 11:10:17;;;;;;;11.18;6.32;;;10.10;99.90;;;;;;5053919;28;20053;-84
2023/10/18 11:12:45;;;;;;;10.93;6.63;;;10.20;99.90;;;;;;5039784;28;20045;-84
2023/10/18 11:15:18;;;;;;;10.88;5.97;;;10.20;99.90;;;;;;5039028;28;20104;-84
2023/10/18 11:17:48;;;;;;;11.90;6.68;;;10.30;99.90;;;;;;5037717;28;20164;-84
2023/10/18 11:20:29;;;;;;;10.10;6.28;;;10.40;99.90;;;;;;5026733;28;20038;-84
2023/10/18 11:22:56;;;;;;;11.63;6.63;;;10.40;99.90;;;;;;5035656;28;20034;-84
2023/10/18 11:25:30;;;;;;;11.68;6.00;;;10.40;99.90;;;;;;5030551;28;20069;-83
2023/10/18 11:28:18;;;;;;;13.85;6.32;;;10.40;99.90;;;;;;5034943;28;20037;-84
2023/10/18 11:30:45;;;;;;;10.00;5.75;;;10.50;99.90;;;;;;5038554;28;20050;-84
2023/10/18 11:33:21;;;;;;;10.00;6.15;;;10.50;99.90;;;;;;5033061;28;20033;-83
2023/10/18 11:35:54;;;;;;;9.77;6.45;;;11.10;99.90;;;;;;5065808;28;20495;-83
2023/10/18 11:38:20;;;;;;;13.77;6.38;;;10.60;99.90;;;;;;5043817;28;20037;-83
2023/10/18 11:40:50;;;;;;;11.90;7.53;;;10.90;99.90;;;;;;5043454;28;20037;-84
2023/10/18 11:43:26;;;;;;;9.85;5.72;;;10.60;99.90;;;;;;5026538;28;20488;-86
2023/10/18 11:46:05;;;;;;;12.45;6.53;;;10.60;99.90;;;;;;5063186;28;20092;-83
2023/10/18 11:48:33;;;;;;;15.77;6.97;;;10.70;99.90;;;;;;5040861;28;20120;-82
2023/10/18 11:51:00;;;;;;;11.45;6.10;;;10.70;99.90;;;;;;5040502;28;20030;-82
2023/10/18 11:53:26;;;;;;;10.35;5.82;;;11.20;99.90;;;;;;5043682;28;20111;-82
2023/10/18 11:56:01;;;;;;;10.75;5.60;;;10.80;99.90;;;;;;5046559;28;20045;-82
2023/10/18 11:58:33;;;;;;;9.57;5.97;;;10.70;99.90;;;;;;5046578;28;20107;-82
2023/10/18 12:01:00;;;;;;;10.68;6.13;;;10.80;99.90;;;;;;5069306;28;20045;-82
2023/10/18 12:03:27;;;;;;;11.35;6.00;;;11.30;99.90;;;;;;5052968;28;20407;-82
2023/10/18 12:05:55;;;;;;;12.25;6.03;;;10.80;99.90;;;;;;5041028;28;20042;-82
2023/10/18 12:08:23;;;;;;;8.73;5.60;;;10.80;99.90;;;;;;5062715;28;20037;-82
2023/10/18 12:10:50;;;;;;;10.10;6.07;;;10.90;99.90;;;;;;5039332;28;20061;-82
2023/10/18 12:13:20;;;;;;;10.18;6.03;;;10.90;99.90;;;;;;5042559;28;20961;-82
2023/10/18 12:15:47;;;;;;;11.88;6.30;;;10.80;99.90;;;;;;5048532;28;20054;-83
2023/10/18 12:18:14;;;;;;;12.10;6.45;;;10.80;99.90;;;;;;5049434;28;20037;-82
2023/10/18 12:20:44;;;;;;;9.70;6.10;;;11.10;99.90;;;;;;5049444;28;20075;-82
2023/10/18 12:23:18;;;;;;;12.23;6.20;;;10.80;99.90;;;;;;5063460;28;20040;-83
2023/10/18 12:25:46;;;;;;;12.48;6.20;;;11.00;99.90;;;;;;5071423;28;20384;-83
2023/10/18 12:28:27;;;;;;;9.82;5.75;;;10.90;99.90;;;;;;5037651;28;20033;-82
2023/10/18 12:31:00;;;;;;;12.40;5.72;;;10.90;99.90;;;;;;5039950;28;20438;-82
2023/10/18 12:33:27;;;;;;;8.93;5.80;;;11.10;99.90;;;;;;5063975;28;20056;-82
2023/10/18 12:35:58;;;;;;;10.25;6.30;;;10.90;99.90;;;;;;5030863;28;20069;-82
2023/10/18 12:38:31;;;;;;;10.80;6.00;;;10.90;99.90;;;;;;5049504;28;20483;-82
2023/10/18 12:41:11;;;;;;;10.13;6.38;;;11.00;99.90;;;;;;5051396;28;20037;-83
2023/10/18 12:43:44;;;;;;;11.93;6.13;;;11.00;99.90;;;;;;5074096;28;20033;-83
2023/10/18 12:46:15;;;;;;;11.48;6.45;;;10.90;99.90;;;;;;5034073;28;20046;-82
2023/10/18 12:48:45;;;;;;;9.93;5.95;;;10.90;99.90;;;;;;5044247;28;20491;-82
2023/10/18 12:51:16;;;;;;;12.25;6.65;;;11.00;99.90;;;;;;5065285;28;20051;-83
2023/10/18 12:53:47;;;;;;;10.95;6.40;;;11.00;99.90;;;;;;5043152;28;20175;-83
2023/10/18 12:59:11;;;;;;;10.05;6.60;;;11.00;99.90;;;;;;5061854;28;20056;-83
2023/10/18 13:04:08;;;;;;;12.07;5.85;;;11.00;99.90;;;;;;5068271;28;20049;-82
2023/10/18 13:06:35;;;;;;;10.32;6.15;;;11.00;99.90;;;;;;5047296;28;20038;-82
2023/10/18 13:09:15;;;;;;;10.48;6.15;;;11.10;99.90;;;;;;5041020;28;20037;-83
2023/10/18 13:12:00;;;;;;;12.50;6.32;;;11.00;99.90;;;;;;5048780;28;20091;-83
2023/10/18 13:14:30;;;;;;;12.00;6.30;;;11.10;99.90;;;;;;5055883;28;20041;-82
2023/10/18 13:17:03;;;;;;;9.85;6.28;;;11.10;99.90;;;;;;5050847;28;20598;-82
2023/10/18 13:19:30;;;;;;;12.57;6.53;;;11.00;99.90;;;;;;5042926;28;20030;-82
2023/10/18 13:21:57;;;;;;;8.98;5.60;;;11.00;99.90;;;;;;5044579;28;20037;-83
2023/10/18 13:26:53;;;;;;;13.00;6.47;;;11.10;99.90;;;;;;5053460;28;20042;-82
2023/10/18 13:31:52;;;;;;;8.82;5.97;;;11.00;99.90;;;;;;5084184;28;20044;-83
2023/10/18 13:34:19;;;;;;;13.23;6.53;;;11.00;99.90;;;;;;5049188;28;20053;-83
2023/10/18 13:36:50;;;;;;;18.02;6.63;;;11.00;99.90;;;;;;5049064;28;20127;-83
2023/10/18 13:39:17;;;;;;;14.30;6.25;;;10.90;99.90;;;;;;5038955;28;20030;-83
2023/10/18 13:41:48;;;;;;;12.27;6.75;;;11.00;99.90;;;;;;5049603;28;20384;-83
2023/10/18 13:44:23;;;;;;;12.27;6.78;;;11.30;99.90;;;;;;5058056;28;20439;-83
2023/10/18 13:46:56;;;;;;;10.60;6.13;;;11.00;99.90;;;;;;5030433;28;20034;-82
2023/10/18 13:49:26;;;;;;;12.82;6.07;;;10.90;99.90;;;;;;5043291;28;20050;-83
2023/10/18 13:51:55;;;;;;;13.07;7.03;;;10.90;99.90;;;;;;5049970;28;20041;-83
2023/10/18 13:54:22;;;;;;;11.32;6.43;;;11.20;99.90;;;;;;5051250;28;20120;-82
2023/10/18 13:56:49;;;;;;;11.40;6.28;;;11.00;99.90;;;;;;5033899;28;20468;-83
2023/10/18 13:59:17;;;;;;;10.55;6.22;;;11.00;99.90;;;;;;5048738;28;20056;-82
2023/10/18 14:01:44;;;;;;;12.52;6.20;;;11.00;99.90;;;;;;5061207;28;20048;-83
2023/10/18 14:04:13;;;;;;;12.63;6.70;;;11.00;99.90;;;;;;5069179;28;20037;-83
2023/10/18 14:06:43;;;;;;;10.90;6.38;;;11.00;99.90;;;;;;5052634;28;20038;-82
2023/10/18 14:09:14;;;;;;;13.05;6.68;;;11.00;99.90;;;;;;5052543;28;20056;-83
2023/10/18 14:11:42;;;;;;;13.25;6.35;;;11.10;99.90;;;;;;5039574;28;20049;-83
2023/10/18 14:14:08;;;;;;;12.63;6.50;;;11.20;99.90;;;;;;5067075;28;20518;-83
2023/10/18 14:16:37;;;;;;;11.48;6.25;;;11.20;99.90;;;;;;5036831;28;20053;-82
2023/10/18 14:19:07;;;;;;;12.25;6.55;;;11.20;99.90;;;;;;5051677;28;20046;-83